الصفحة الرئيسية
METAR-TAF:

METAR-TAF

مطار :

مطار نينوي أكوينو الدولي

مانيلا, الفلبين

دائرة عرض: 14-31N, خط طول: 121-00E, ارتفاع: 14 متر

مراقبة الطقس الحالي

تاريخ ووقت الإصدار 44 دقيقة قبل الساعة 00:00UTC
ريح 3 عقدةمن اتجاهات متغيرة
درجة الحرارة 30°درجة مئوية
الرطوبة 62%
ضغط 1012 hPa
الرؤية 10 كم أو أكثر
غيوم قليلة على ارتفاع 2500 قدم

METAR: RPLL 290000Z VRB03KT 9999 FEW025 30/22 Q1012 NOSIG RMK A2988

زمن: 08:44 (00:44 UTC)

توقعات

تاريخ ووقت الإصدار 1ساعة و 44 دقيقة قبل الساعة 23:00UTC
التوقعات صالحة من29 الساعة 00 UTC إلى 30 الساعة 06 UTC
ريح 8 عقدة من الشرق/الجنوب الشرقي
الرؤية 10 كم أو أكثر
غيوم قليلة على ارتفاع 2500 قدم
مؤقت
من 29 الساعة 00 UTC إلى 29 الساعة 06 UTC
ريح 12 عقدة من الشرق/الجنوب الشرقي
غيوم متفرقة على ارتفاع 2300 قدم
مؤقت
من 29 الساعة 06 UTC إلى 29 الساعة 12 UTC
ريح 16 عقدة من الجنوب الشرقي

TAF: RPLL 282300Z 2900/3006 11008KT 9999 FEW025 TX34/2906Z TN26/2921Z TEMPO 2900/2906 12012KT SCT023 TEMPO 2906/2912 14016KT

أرصاد الطقس والتوقعات من أكثر من 4000 مطار (تقارير الطقس للمطار METAR والتنبؤ بالطقس بالمطارTAF).

المحطات المتاحة هي النقط الصفراء والحمراء على الخريطة.

حرك المؤشر فوق النقطة لمعرفة اسم المحطة.

ثم انقر لمعرفة أرصاد وتوقعات الطقس.

لتغيير الخارطة: اضغط على الأزرار الخضراء مع رمز الصليب الأسود للتكبير. على الزر الأخضر مع شرطة للتصغير، أو على الأسهم الخضراء للخرائط المجاورة.


METAR-TAF: